Ilford, Canada
Current Conditions -  °F | °C
As of 5:06 AM on Friday 24 Oct 2014 (Local Time) from CYGX Reporting Station
Haze Haze  
Wind Chill: 34°   Ceiling: 3000
Heat Index: 39°   Visibility: 5mi
Dew Point: 37°   Wind: 7mph
Humidity: 93%   Direction: 220°SW
Pressure: 29.57"   Gusts: NA
Location:  56.04°N, 95.58°W
Report Text: CYGX 241006Z 22006KT 5SM BR OVC030 04/03 A2957 RMK SC8 SLP020
Loading
Personal Weather Stations






























Interactive Weather Map New forecast layout! Learn more

10-Day Weather Forecast

Advertisements
Track Severe Weather on mobile